createdAt,value
2023-04-20T00:03:33.779Z,75.18
2023-04-20T00:07:37.299Z,75.16
2023-04-20T00:11:40.996Z,75.26
2023-04-20T00:15:44.265Z,75.33
2023-04-20T00:19:49.337Z,75.47
2023-04-20T00:23:52.727Z,75.60
2023-04-20T00:27:56.640Z,75.47
2023-04-20T00:32:00.306Z,75.43
2023-04-20T00:36:07.186Z,75.46
2023-04-20T00:40:10.935Z,75.35
2023-04-20T00:44:16.196Z,75.13
2023-04-20T00:48:19.758Z,75.12
2023-04-20T00:52:25.168Z,74.90
2023-04-20T00:56:28.918Z,75.46
2023-04-20T01:00:33.183Z,75.29
2023-04-20T01:04:36.727Z,75.07
2023-04-20T01:08:49.496Z,75.49
2023-04-20T01:12:52.343Z,75.67
2023-04-20T01:16:56.536Z,75.87
2023-04-20T01:20:59.691Z,75.46
2023-04-20T01:25:05.351Z,75.40
2023-04-20T01:29:08.818Z,75.35
2023-04-20T01:33:12.465Z,75.60
2023-04-20T01:37:16.129Z,75.40
2023-04-20T01:41:21.799Z,74.99
2023-04-20T01:45:24.995Z,75.11
2023-04-20T01:49:29.230Z,74.85
2023-04-20T01:53:32.573Z,75.19
2023-04-20T01:57:38.234Z,75.06
2023-04-20T02:01:41.459Z,75.06
2023-04-20T02:05:45.472Z,75.05
2023-04-20T02:09:48.474Z,75.19
2023-04-20T02:13:53.939Z,74.98
2023-04-20T02:17:57.607Z,75.17
2023-04-20T02:22:02.164Z,74.83
2023-04-20T02:26:05.736Z,75.25
2023-04-20T02:30:12.573Z,75.66
2023-04-20T02:34:16.259Z,75.68
2023-04-20T02:38:19.771Z,75.37
2023-04-20T02:42:23.057Z,75.31
2023-04-20T02:46:27.745Z,75.53
2023-04-20T02:50:30.939Z,75.34
2023-04-20T02:54:35.160Z,75.28
2023-04-20T02:58:38.656Z,75.37
2023-04-20T03:02:43.763Z,75.05
2023-04-20T03:06:47.341Z,75.09
2023-04-20T03:10:51.346Z,75.12
2023-04-20T03:14:54.784Z,74.34
2023-04-20T03:19:00.178Z,74.15
2023-04-20T03:23:03.135Z,74.00
2023-04-20T03:27:06.690Z,73.44
2023-04-20T03:31:10.132Z,73.75
2023-04-20T03:35:14.915Z,73.19
2023-04-20T03:39:20.364Z,73.25
2023-04-20T03:43:24.211Z,73.29
2023-04-20T03:47:27.723Z,73.19
2023-04-20T03:51:32.928Z,73.54
2023-04-20T03:55:36.512Z,73.68
2023-04-20T03:59:42.682Z,72.97
2023-04-20T04:03:46.222Z,73.89
2023-04-20T04:07:51.180Z,73.96
2023-04-20T04:11:54.262Z,74.29
2023-04-20T04:15:57.606Z,74.62
2023-04-20T04:20:00.933Z,74.72
2023-04-20T04:24:06.493Z,75.12
2023-04-20T04:28:09.518Z,75.26
2023-04-20T04:32:14.376Z,75.34
2023-04-20T04:36:17.774Z,75.63
2023-04-20T04:40:23.190Z,75.68
2023-04-20T04:44:29.183Z,76.11
2023-04-20T04:48:32.418Z,76.47
2023-04-20T04:52:35.546Z,76.45
2023-04-20T04:56:40.691Z,76.18
2023-04-20T05:00:43.918Z,76.60
2023-04-20T05:04:47.891Z,76.73
2023-04-20T05:08:51.412Z,76.31
2023-04-20T05:12:58.883Z,76.46
2023-04-20T05:17:03.483Z,76.67
2023-04-20T05:21:07.186Z,76.49
2023-04-20T05:25:13.802Z,76.49
2023-04-20T05:29:19.418Z,76.29
2023-04-20T05:33:22.705Z,76.17
2023-04-20T05:37:26.185Z,75.97
2023-04-20T05:41:29.281Z,75.67
2023-04-20T05:45:36.408Z,75.44
2023-04-20T05:49:40.675Z,75.02
2023-04-20T05:53:44.412Z,75.20
2023-04-20T05:57:48.116Z,75.50
2023-04-20T06:01:53.313Z,75.26
2023-04-20T06:05:56.553Z,74.81
2023-04-20T06:10:01.267Z,74.25
2023-04-20T06:14:04.487Z,74.11
2023-04-20T06:18:09.674Z,73.90
2023-04-20T06:22:13.237Z,73.26
2023-04-20T06:26:17.005Z,72.94
2023-04-20T06:30:20.079Z,73.42
2023-04-20T06:34:25.605Z,73.11
2023-04-20T06:38:28.939Z,72.70
2023-04-20T06:42:32.496Z,72.90
2023-04-20T06:46:36.011Z,73.04
2023-04-20T06:50:40.817Z,72.71
2023-04-20T06:54:43.886Z,72.47
2023-04-20T06:58:47.382Z,71.58
2023-04-20T07:02:51.793Z,71.45
2023-04-20T07:06:56.683Z,71.71
2023-04-20T07:11:00.097Z,70.97
2023-04-20T07:15:06.044Z,70.39
2023-04-20T07:19:09.795Z,71.33
2023-04-20T07:23:15.465Z,70.96
2023-04-20T07:27:18.626Z,70.69
2023-04-20T07:31:22.719Z,70.90
2023-04-20T07:35:25.986Z,70.86
2023-04-20T07:39:31.356Z,70.93
2023-04-20T07:43:34.606Z,71.67
2023-04-20T07:47:38.956Z,71.21
2023-04-20T07:51:42.238Z,70.49
2023-04-20T07:55:49.140Z,70.81
2023-04-20T07:59:53.967Z,71.41
2023-04-20T08:03:57.706Z,70.80
2023-04-20T08:08:01.398Z,71.11
2023-04-20T08:12:07.150Z,71.05
2023-04-20T08:16:10.688Z,70.62
2023-04-20T08:20:15.327Z,70.56
2023-04-20T08:24:21.262Z,68.84
2023-04-20T08:28:33.484Z,68.45
2023-04-20T08:32:38.107Z,68.93
2023-04-20T08:36:43.002Z,68.94
2023-04-20T08:40:47.062Z,68.58
2023-04-20T08:44:53.353Z,67.95
2023-04-20T08:48:57.493Z,68.14
2023-04-20T08:53:01.810Z,66.92
2023-04-20T08:57:06.020Z,68.24
2023-04-20T09:01:15.553Z,67.37
2023-04-20T09:05:28.960Z,66.00
2023-04-20T09:09:32.542Z,64.63
2023-04-20T09:13:35.877Z,65.72
2023-04-20T09:17:42.399Z,63.94
2023-04-20T09:21:50.784Z,64.46
2023-04-20T09:25:54.504Z,64.17
2023-04-20T09:30:01.600Z,63.58
2023-04-20T09:34:06.983Z,62.28
2023-04-20T09:38:11.043Z,62.13
2023-04-20T09:42:16.392Z,61.43
2023-04-20T09:46:21.992Z,60.06
2023-04-20T09:50:38.316Z,60.01
2023-04-20T09:54:50.081Z,58.37
2023-04-20T09:58:56.700Z,57.34
2023-04-20T10:03:00.170Z,58.63
2023-04-20T10:07:06.608Z,58.33
2023-04-20T10:11:09.731Z,57.74
2023-04-20T10:15:13.081Z,58.29
2023-04-20T10:19:19.409Z,57.84
2023-04-20T10:23:24.570Z,55.97
2023-04-20T10:27:32.688Z,58.41
2023-04-20T10:31:40.419Z,60.42
2023-04-20T10:35:48.521Z,57.21
2023-04-20T10:39:53.256Z,58.08
2023-04-20T10:43:58.857Z,58.21
2023-04-20T10:48:09.922Z,59.37
2023-04-20T10:52:13.143Z,54.91
2023-04-20T10:56:18.091Z,54.20
2023-04-20T11:00:23.197Z,56.90
2023-04-20T11:04:33.105Z,55.85
2023-04-20T11:08:40.601Z,53.85
2023-04-20T11:12:45.640Z,54.07
2023-04-20T11:16:54.095Z,56.00
2023-04-20T11:20:59.116Z,52.83
2023-04-20T11:25:06.949Z,54.73
2023-04-20T11:29:12.845Z,53.99
2023-04-20T11:33:16.776Z,55.76
2023-04-20T11:37:20.102Z,55.05
2023-04-20T11:41:23.918Z,54.29
2023-04-20T11:45:29.316Z,53.19
2023-04-20T11:49:34.351Z,52.63
2023-04-20T11:53:38.038Z,51.95
2023-04-20T11:57:41.732Z,52.68
2023-04-20T12:01:46.927Z,53.61
2023-04-20T12:05:52.148Z,53.04
2023-04-20T12:09:55.319Z,53.99
2023-04-20T12:13:59.402Z,54.87
2023-04-20T12:18:11.513Z,55.37
2023-04-20T12:22:14.939Z,56.60
2023-04-20T12:26:18.316Z,53.90
2023-04-20T12:30:22.401Z,53.86
2023-04-20T12:34:30.757Z,52.31
2023-04-20T12:38:34.590Z,52.80
2023-04-20T12:42:37.861Z,51.14
2023-04-20T12:46:43.172Z,52.61
2023-04-20T12:50:47.751Z,53.34
2023-04-20T12:54:52.900Z,52.80
2023-04-20T12:58:55.793Z,51.00
2023-04-20T13:02:59.829Z,51.18
2023-04-20T13:07:04.754Z,51.56
2023-04-20T13:11:08.427Z,49.58
2023-04-20T13:15:13.992Z,51.24
2023-04-20T13:19:17.587Z,49.67
2023-04-20T13:23:23.503Z,51.56
2023-04-20T13:27:27.431Z,52.34
2023-04-20T13:31:31.842Z,52.10
2023-04-20T13:35:36.209Z,50.22
2023-04-20T13:39:41.599Z,50.36
2023-04-20T13:43:44.944Z,50.92
2023-04-20T13:47:49.548Z,51.45
2023-04-20T13:51:53.205Z,49.99
2023-04-20T13:55:58.869Z,50.38
2023-04-20T14:00:02.820Z,49.91
2023-04-20T14:04:06.425Z,50.45
2023-04-20T14:08:10.104Z,49.02
2023-04-20T14:12:15.275Z,50.11
2023-04-20T14:16:18.928Z,49.68
2023-04-20T14:20:22.170Z,50.25
2023-04-20T14:24:26.280Z,49.77
2023-04-20T14:28:31.844Z,48.50
2023-04-20T14:32:37.009Z,50.62
2023-04-20T14:36:41.120Z,49.37
2023-04-20T14:40:44.835Z,49.20
2023-04-20T14:44:49.746Z,48.33
2023-04-20T14:48:53.367Z,47.03
2023-04-20T14:52:56.782Z,48.47
2023-04-20T14:56:59.986Z,48.45
2023-04-20T15:01:04.526Z,49.84
2023-04-20T15:05:10.519Z,48.28
2023-04-20T15:09:15.180Z,48.55
2023-04-20T15:13:18.871Z,46.69
2023-04-20T15:17:23.687Z,49.76
2023-04-20T15:21:27.178Z,48.49
2023-04-20T15:25:30.206Z,49.55
2023-04-20T15:29:35.952Z,48.81
2023-04-20T15:33:43.355Z,49.90
2023-04-20T15:37:47.842Z,49.76
2023-04-20T15:41:51.013Z,50.12
2023-04-20T15:45:54.459Z,50.64
2023-04-20T15:50:01.755Z,50.76
2023-04-20T15:54:05.249Z,50.07
2023-04-20T15:58:10.129Z,50.21
2023-04-20T16:02:13.714Z,50.89
2023-04-20T16:06:18.478Z,50.83
2023-04-20T16:10:24.386Z,50.91
2023-04-20T16:14:28.481Z,50.67
2023-04-20T16:18:35.946Z,50.64
2023-04-20T16:22:44.622Z,52.47
2023-04-20T16:26:51.827Z,51.20
2023-04-20T16:30:58.198Z,50.68
2023-04-20T16:35:02.051Z,50.43
2023-04-20T16:39:10.348Z,51.47
2023-04-20T16:43:13.287Z,51.11
2023-04-20T16:47:16.655Z,51.07
2023-04-20T16:51:22.475Z,52.19
2023-04-20T17:00:38.468Z,52.98
2023-04-20T17:04:41.667Z,52.81
2023-04-20T17:08:45.117Z,53.19
2023-04-20T17:12:48.434Z,52.46
2023-04-20T17:16:54.408Z,54.01
2023-04-20T17:20:59.814Z,53.12
2023-04-20T17:25:06.529Z,53.85
2023-04-20T17:29:10.665Z,54.08
2023-04-20T17:33:15.144Z,54.16
2023-04-20T17:37:20.665Z,54.97
2023-04-20T17:41:23.652Z,54.88
2023-04-20T17:45:26.881Z,55.10
2023-04-20T17:49:32.545Z,54.94
2023-04-20T17:53:36.591Z,55.33
2023-04-20T17:57:40.391Z,55.41
2023-04-20T18:01:43.672Z,55.51
2023-04-20T18:05:48.502Z,55.87
2023-04-20T18:09:51.489Z,55.76
2023-04-20T18:13:54.886Z,56.50
2023-04-20T18:17:57.979Z,56.26
2023-04-20T18:22:02.637Z,56.84
2023-04-20T18:26:07.985Z,57.09
2023-04-20T18:30:11.797Z,57.30
2023-04-20T18:34:17.369Z,57.86
2023-04-20T18:38:22.215Z,57.76
2023-04-20T18:42:27.034Z,58.69
2023-04-20T18:46:30.358Z,58.89
2023-04-20T18:50:33.564Z,59.46
2023-04-20T18:54:38.973Z,59.55
2023-04-20T18:58:42.197Z,59.84
2023-04-20T19:02:45.773Z,60.32
2023-04-20T19:06:49.110Z,60.11
2023-04-20T19:10:56.976Z,60.29
2023-04-20T19:15:00.287Z,60.40
2023-04-20T19:19:05.027Z,60.60
2023-04-20T19:23:10.932Z,60.73
2023-04-20T19:27:20.810Z,61.16
2023-04-20T19:31:23.959Z,61.08
2023-04-20T19:35:27.037Z,61.72
2023-04-20T19:39:30.482Z,61.40
2023-04-20T19:43:35.433Z,61.75
2023-04-20T19:47:39.149Z,61.91
2023-04-20T19:51:42.504Z,62.31
2023-04-20T19:55:48.049Z,62.55
2023-04-20T19:59:52.987Z,62.55
2023-04-20T20:03:56.604Z,62.74
2023-04-20T20:07:59.928Z,62.73
2023-04-20T20:12:05.178Z,62.78
2023-04-20T20:16:11.138Z,62.97
2023-04-20T20:20:15.740Z,62.64
2023-04-20T20:24:19.032Z,63.00
2023-04-20T20:28:22.820Z,62.91
2023-04-20T20:32:27.776Z,63.33
2023-04-20T20:36:32.426Z,63.25
2023-04-20T20:40:35.834Z,63.54
2023-04-20T20:44:40.410Z,63.90
2023-04-20T20:48:47.254Z,63.75
2023-04-20T20:52:51.231Z,64.20
2023-04-20T20:56:58.835Z,64.56
2023-04-20T21:01:02.731Z,64.74
2023-04-20T21:05:08.024Z,65.15
2023-04-20T21:09:11.760Z,65.12
2023-04-20T21:13:16.004Z,65.33
2023-04-20T21:17:19.252Z,65.45
2023-04-20T21:21:23.945Z,65.58
2023-04-20T21:25:27.769Z,65.86
2023-04-20T21:29:31.240Z,65.94
2023-04-20T21:33:36.261Z,66.33
2023-04-20T21:37:43.068Z,66.54
2023-04-20T21:41:46.497Z,66.72
2023-04-20T21:45:51.217Z,66.77
2023-04-20T21:49:54.519Z,67.09
2023-04-20T21:53:59.429Z,67.21
2023-04-20T21:58:02.819Z,67.36
2023-04-20T22:02:06.942Z,67.21
2023-04-20T22:06:11.187Z,67.52
2023-04-20T22:10:16.202Z,67.46
2023-04-20T22:14:19.985Z,67.34
2023-04-20T22:18:23.146Z,67.30
2023-04-20T22:22:26.250Z,66.82
2023-04-20T22:26:30.737Z,67.00
2023-04-20T22:30:34.345Z,66.85
2023-04-20T22:34:37.338Z,66.72
2023-04-20T22:38:41.196Z,66.88
2023-04-20T22:42:45.478Z,66.47
2023-04-20T22:46:51.401Z,66.46
2023-04-20T22:50:54.838Z,66.47
2023-04-20T22:54:58.302Z,66.64
2023-04-20T22:59:02.643Z,66.75
2023-04-20T23:03:06.977Z,66.33
2023-04-20T23:07:10.618Z,66.59
2023-04-20T23:11:16.819Z,66.64
2023-04-20T23:15:21.860Z,66.65
2023-04-20T23:19:26.279Z,66.66
2023-04-20T23:23:29.339Z,66.59
2023-04-20T23:27:32.755Z,66.87
2023-04-20T23:31:37.599Z,66.82
2023-04-20T23:35:41.487Z,67.14
2023-04-20T23:39:44.872Z,67.54
2023-04-20T23:43:49.937Z,67.88
2023-04-20T23:47:54.766Z,67.77
2023-04-20T23:51:58.487Z,67.98
2023-04-20T23:56:01.906Z,68.33
